sensor_id;sensor_type;location;lat;lon;timestamp;P1;durP1;ratioP1;P2;durP2;ratioP2
72113;SDS011;59989;46.220;19.888;2024-03-17T00:02:01;27.35;;;12.85;;
72113;SDS011;59989;46.220;19.888;2024-03-17T00:05:02;26.80;;;13.13;;
72113;SDS011;59989;46.220;19.888;2024-03-17T00:08:04;27.73;;;12.53;;
72113;SDS011;59989;46.220;19.888;2024-03-17T00:11:06;25.95;;;13.20;;
72113;SDS011;59989;46.220;19.888;2024-03-17T00:14:07;28.17;;;13.90;;
72113;SDS011;59989;46.220;19.888;2024-03-17T00:17:09;26.35;;;12.07;;
72113;SDS011;59989;46.220;19.888;2024-03-17T00:20:10;27.03;;;12.30;;
72113;SDS011;59989;46.220;19.888;2024-03-17T00:23:20;33.30;;;13.93;;
72113;SDS011;59989;46.220;19.888;2024-03-17T00:26:21;35.03;;;13.20;;
72113;SDS011;59989;46.220;19.888;2024-03-17T00:29:23;24.50;;;11.00;;
72113;SDS011;59989;46.220;19.888;2024-03-17T00:32:24;29.90;;;10.85;;
72113;SDS011;59989;46.220;19.888;2024-03-17T00:35:26;21.47;;;9.43;;
72113;SDS011;59989;46.220;19.888;2024-03-17T00:38:27;17.63;;;8.60;;
72113;SDS011;59989;46.220;19.888;2024-03-17T00:41:30;22.02;;;9.35;;
72113;SDS011;59989;46.220;19.888;2024-03-17T00:44:32;21.25;;;8.45;;
72113;SDS011;59989;46.220;19.888;2024-03-17T00:47:33;19.65;;;8.57;;
72113;SDS011;59989;46.220;19.888;2024-03-17T00:50:35;19.43;;;6.60;;
72113;SDS011;59989;46.220;19.888;2024-03-17T00:53:36;19.13;;;7.20;;
72113;SDS011;59989;46.220;19.888;2024-03-17T00:56:37;15.57;;;6.05;;
72113;SDS011;59989;46.220;19.888;2024-03-17T00:59:39;16.48;;;5.35;;
72113;SDS011;59989;46.220;19.888;2024-03-17T01:02:40;16.77;;;6.38;;
72113;SDS011;59989;46.220;19.888;2024-03-17T01:05:42;16.27;;;6.13;;
72113;SDS011;59989;46.220;19.888;2024-03-17T01:08:45;17.30;;;5.43;;
72113;SDS011;59989;46.220;19.888;2024-03-17T01:11:47;17.40;;;6.88;;
72113;SDS011;59989;46.220;19.888;2024-03-17T01:14:49;23.55;;;7.35;;
72113;SDS011;59989;46.220;19.888;2024-03-17T01:17:50;17.25;;;6.03;;
72113;SDS011;59989;46.220;19.888;2024-03-17T01:20:52;18.07;;;7.10;;
72113;SDS011;59989;46.220;19.888;2024-03-17T01:23:53;20.17;;;6.83;;
72113;SDS011;59989;46.220;19.888;2024-03-17T01:26:54;20.75;;;7.90;;
72113;SDS011;59989;46.220;19.888;2024-03-17T01:29:56;20.90;;;6.85;;
72113;SDS011;59989;46.220;19.888;2024-03-17T01:32:58;20.58;;;8.02;;
72113;SDS011;59989;46.220;19.888;2024-03-17T01:36:00;23.70;;;8.03;;
72113;SDS011;59989;46.220;19.888;2024-03-17T01:39:02;24.23;;;7.63;;
72113;SDS011;59989;46.220;19.888;2024-03-17T01:42:03;25.50;;;8.93;;
72113;SDS011;59989;46.220;19.888;2024-03-17T01:45:25;23.67;;;7.03;;
72113;SDS011;59989;46.220;19.888;2024-03-17T01:48:29;23.80;;;7.85;;
72113;SDS011;59989;46.220;19.888;2024-03-17T01:51:30;14.73;;;6.07;;
72113;SDS011;59989;46.220;19.888;2024-03-17T01:54:32;11.43;;;4.30;;
72113;SDS011;59989;46.220;19.888;2024-03-17T01:57:33;11.20;;;5.50;;
72113;SDS011;59989;46.220;19.888;2024-03-17T02:00:35;14.52;;;5.03;;
72113;SDS011;59989;46.220;19.888;2024-03-17T02:03:37;14.60;;;5.70;;
72113;SDS011;59989;46.220;19.888;2024-03-17T02:06:39;13.13;;;5.03;;
72113;SDS011;59989;46.220;19.888;2024-03-17T02:09:40;9.43;;;3.30;;
72113;SDS011;59989;46.220;19.888;2024-03-17T02:12:44;10.40;;;3.30;;
72113;SDS011;59989;46.220;19.888;2024-03-17T02:15:45;8.98;;;2.60;;
72113;SDS011;59989;46.220;19.888;2024-03-17T02:18:47;7.85;;;2.75;;
72113;SDS011;59989;46.220;19.888;2024-03-17T02:21:48;7.80;;;2.20;;
72113;SDS011;59989;46.220;19.888;2024-03-17T02:24:50;7.47;;;2.00;;
72113;SDS011;59989;46.220;19.888;2024-03-17T02:27:52;7.40;;;2.22;;
72113;SDS011;59989;46.220;19.888;2024-03-17T02:30:53;6.35;;;1.88;;
72113;SDS011;59989;46.220;19.888;2024-03-17T02:33:55;5.25;;;1.30;;
72113;SDS011;59989;46.220;19.888;2024-03-17T02:36:56;6.40;;;1.23;;
72113;SDS011;59989;46.220;19.888;2024-03-17T02:39:57;6.37;;;1.43;;
72113;SDS011;59989;46.220;19.888;2024-03-17T02:42:59;6.13;;;1.45;;
72113;SDS011;59989;46.220;19.888;2024-03-17T02:46:01;5.07;;;1.05;;
72113;SDS011;59989;46.220;19.888;2024-03-17T02:49:05;4.82;;;1.35;;
72113;SDS011;59989;46.220;19.888;2024-03-17T02:52:09;3.87;;;0.77;;
72113;SDS011;59989;46.220;19.888;2024-03-17T02:55:11;4.43;;;1.07;;
72113;SDS011;59989;46.220;19.888;2024-03-17T02:58:13;5.28;;;1.10;;
72113;SDS011;59989;46.220;19.888;2024-03-17T03:01:14;4.20;;;0.80;;
72113;SDS011;59989;46.220;19.888;2024-03-17T03:04:16;5.38;;;0.93;;
72113;SDS011;59989;46.220;19.888;2024-03-17T03:07:18;3.57;;;0.83;;
72113;SDS011;59989;46.220;19.888;2024-03-17T03:10:20;6.20;;;1.40;;
72113;SDS011;59989;46.220;19.888;2024-03-17T03:13:22;3.58;;;0.85;;
72113;SDS011;59989;46.220;19.888;2024-03-17T03:16:23;4.35;;;0.93;;
72113;SDS011;59989;46.220;19.888;2024-03-17T03:19:28;2.97;;;0.70;;
72113;SDS011;59989;46.220;19.888;2024-03-17T03:22:31;4.90;;;1.00;;
72113;SDS011;59989;46.220;19.888;2024-03-17T03:25:33;5.97;;;1.00;;
72113;SDS011;59989;46.220;19.888;2024-03-17T03:28:35;3.85;;;1.00;;
72113;SDS011;59989;46.220;19.888;2024-03-17T03:31:37;3.17;;;0.70;;
72113;SDS011;59989;46.220;19.888;2024-03-17T03:34:40;3.55;;;0.98;;
72113;SDS011;59989;46.220;19.888;2024-03-17T03:37:41;5.30;;;1.23;;
72113;SDS011;59989;46.220;19.888;2024-03-17T03:40:43;5.07;;;1.00;;
72113;SDS011;59989;46.220;19.888;2024-03-17T03:43:45;5.60;;;0.98;;
72113;SDS011;59989;46.220;19.888;2024-03-17T03:46:49;5.65;;;1.35;;
72113;SDS011;59989;46.220;19.888;2024-03-17T03:49:50;5.88;;;1.25;;
72113;SDS011;59989;46.220;19.888;2024-03-17T03:52:52;4.20;;;1.00;;
72113;SDS011;59989;46.220;19.888;2024-03-17T03:55:53;4.97;;;1.03;;
72113;SDS011;59989;46.220;19.888;2024-03-17T03:58:55;4.85;;;1.00;;
72113;SDS011;59989;46.220;19.888;2024-03-17T04:01:56;6.35;;;1.08;;
72113;SDS011;59989;46.220;19.888;2024-03-17T04:04:58;4.57;;;0.88;;
72113;SDS011;59989;46.220;19.888;2024-03-17T04:07:59;4.83;;;1.10;;
72113;SDS011;59989;46.220;19.888;2024-03-17T04:11:01;4.17;;;0.70;;
72113;SDS011;59989;46.220;19.888;2024-03-17T04:14:03;4.50;;;0.90;;
72113;SDS011;59989;46.220;19.888;2024-03-17T04:17:06;6.00;;;1.08;;
72113;SDS011;59989;46.220;19.888;2024-03-17T04:20:07;3.85;;;0.70;;
72113;SDS011;59989;46.220;19.888;2024-03-17T04:23:11;7.57;;;1.00;;
72113;SDS011;59989;46.220;19.888;2024-03-17T04:26:12;4.07;;;0.73;;
72113;SDS011;59989;46.220;19.888;2024-03-17T04:29:15;4.95;;;1.00;;
72113;SDS011;59989;46.220;19.888;2024-03-17T04:32:17;3.38;;;0.80;;
72113;SDS011;59989;46.220;19.888;2024-03-17T04:35:18;5.60;;;1.08;;
72113;SDS011;59989;46.220;19.888;2024-03-17T04:38:19;3.17;;;0.70;;
72113;SDS011;59989;46.220;19.888;2024-03-17T04:41:21;4.37;;;0.83;;
72113;SDS011;59989;46.220;19.888;2024-03-17T04:44:22;3.83;;;0.85;;
72113;SDS011;59989;46.220;19.888;2024-03-17T04:47:24;4.43;;;0.90;;
72113;SDS011;59989;46.220;19.888;2024-03-17T04:50:25;5.13;;;1.15;;
72113;SDS011;59989;46.220;19.888;2024-03-17T04:53:27;3.97;;;0.90;;
72113;SDS011;59989;46.220;19.888;2024-03-17T04:56:30;4.20;;;0.97;;
72113;SDS011;59989;46.220;19.888;2024-03-17T04:59:33;3.95;;;0.77;;
72113;SDS011;59989;46.220;19.888;2024-03-17T05:02:37;4.00;;;0.80;;
72113;SDS011;59989;46.220;19.888;2024-03-17T05:05:38;4.85;;;1.23;;
72113;SDS011;59989;46.220;19.888;2024-03-17T05:08:40;6.67;;;1.03;;
72113;SDS011;59989;46.220;19.888;2024-03-17T05:11:42;5.17;;;1.10;;
72113;SDS011;59989;46.220;19.888;2024-03-17T05:14:43;5.22;;;1.20;;
72113;SDS011;59989;46.220;19.888;2024-03-17T05:17:44;5.32;;;1.20;;
72113;SDS011;59989;46.220;19.888;2024-03-17T05:20:46;5.85;;;1.10;;
72113;SDS011;59989;46.220;19.888;2024-03-17T05:23:50;5.63;;;1.37;;
72113;SDS011;59989;46.220;19.888;2024-03-17T05:26:52;4.90;;;1.30;;
72113;SDS011;59989;46.220;19.888;2024-03-17T05:29:53;4.68;;;0.88;;
72113;SDS011;59989;46.220;19.888;2024-03-17T05:32:55;5.22;;;1.20;;
72113;SDS011;59989;46.220;19.888;2024-03-17T05:35:58;5.45;;;1.17;;
72113;SDS011;59989;46.220;19.888;2024-03-17T05:39:00;6.17;;;1.27;;
72113;SDS011;59989;46.220;19.888;2024-03-17T05:42:02;5.70;;;1.70;;
72113;SDS011;59989;46.220;19.888;2024-03-17T05:45:04;4.93;;;1.25;;
72113;SDS011;59989;46.220;19.888;2024-03-17T05:48:06;5.90;;;1.38;;
72113;SDS011;59989;46.220;19.888;2024-03-17T05:51:09;4.85;;;1.25;;
72113;SDS011;59989;46.220;19.888;2024-03-17T05:54:12;5.60;;;1.20;;
72113;SDS011;59989;46.220;19.888;2024-03-17T05:57:13;4.90;;;1.00;;
72113;SDS011;59989;46.220;19.888;2024-03-17T06:00:17;3.65;;;0.68;;
72113;SDS011;59989;46.220;19.888;2024-03-17T06:03:18;3.60;;;0.90;;
72113;SDS011;59989;46.220;19.888;2024-03-17T06:06:20;4.30;;;1.13;;
72113;SDS011;59989;46.220;19.888;2024-03-17T06:09:23;6.00;;;1.53;;
72113;SDS011;59989;46.220;19.888;2024-03-17T06:12:25;5.57;;;1.67;;
72113;SDS011;59989;46.220;19.888;2024-03-17T06:15:26;6.30;;;1.30;;
72113;SDS011;59989;46.220;19.888;2024-03-17T06:18:28;5.68;;;1.40;;
72113;SDS011;59989;46.220;19.888;2024-03-17T06:21:30;5.70;;;1.20;;
72113;SDS011;59989;46.220;19.888;2024-03-17T06:24:31;4.90;;;1.10;;
72113;SDS011;59989;46.220;19.888;2024-03-17T06:27:33;4.70;;;1.10;;
72113;SDS011;59989;46.220;19.888;2024-03-17T06:30:35;12.25;;;1.77;;
72113;SDS011;59989;46.220;19.888;2024-03-17T06:33:37;5.05;;;1.13;;
72113;SDS011;59989;46.220;19.888;2024-03-17T06:36:39;5.57;;;1.27;;
72113;SDS011;59989;46.220;19.888;2024-03-17T06:39:41;5.13;;;1.17;;
72113;SDS011;59989;46.220;19.888;2024-03-17T06:42:42;5.10;;;1.10;;
72113;SDS011;59989;46.220;19.888;2024-03-17T06:45:44;5.95;;;1.38;;
72113;SDS011;59989;46.220;19.888;2024-03-17T06:48:58;4.50;;;1.00;;
72113;SDS011;59989;46.220;19.888;2024-03-17T06:52:00;5.57;;;0.98;;
72113;SDS011;59989;46.220;19.888;2024-03-17T06:55:02;5.90;;;1.27;;
72113;SDS011;59989;46.220;19.888;2024-03-17T06:58:04;4.70;;;1.20;;
72113;SDS011;59989;46.220;19.888;2024-03-17T07:01:05;4.70;;;1.10;;
72113;SDS011;59989;46.220;19.888;2024-03-17T07:04:07;4.70;;;1.10;;
72113;SDS011;59989;46.220;19.888;2024-03-17T07:07:08;5.00;;;1.13;;
72113;SDS011;59989;46.220;19.888;2024-03-17T07:10:11;6.23;;;1.70;;
72113;SDS011;59989;46.220;19.888;2024-03-17T07:13:13;6.47;;;1.37;;
72113;SDS011;59989;46.220;19.888;2024-03-17T07:16:14;7.40;;;1.10;;
72113;SDS011;59989;46.220;19.888;2024-03-17T07:19:16;4.63;;;1.08;;
72113;SDS011;59989;46.220;19.888;2024-03-17T07:22:17;4.85;;;1.15;;
72113;SDS011;59989;46.220;19.888;2024-03-17T07:25:19;3.10;;;0.50;;
72113;SDS011;59989;46.220;19.888;2024-03-17T07:28:20;5.03;;;1.23;;
72113;SDS011;59989;46.220;19.888;2024-03-17T07:31:23;4.25;;;0.80;;
72113;SDS011;59989;46.220;19.888;2024-03-17T07:34:24;3.33;;;0.77;;
72113;SDS011;59989;46.220;19.888;2024-03-17T07:37:26;4.95;;;0.70;;
72113;SDS011;59989;46.220;19.888;2024-03-17T07:40:27;3.37;;;0.60;;
72113;SDS011;59989;46.220;19.888;2024-03-17T07:43:29;5.60;;;1.30;;
72113;SDS011;59989;46.220;19.888;2024-03-17T07:46:32;6.53;;;1.30;;
72113;SDS011;59989;46.220;19.888;2024-03-17T07:49:34;4.05;;;0.90;;
72113;SDS011;59989;46.220;19.888;2024-03-17T07:52:39;4.50;;;0.80;;
72113;SDS011;59989;46.220;19.888;2024-03-17T07:55:41;3.83;;;0.73;;
72113;SDS011;59989;46.220;19.888;2024-03-17T07:58:43;3.77;;;0.73;;
72113;SDS011;59989;46.220;19.888;2024-03-17T08:01:45;5.05;;;0.82;;
72113;SDS011;59989;46.220;19.888;2024-03-17T08:04:46;5.80;;;1.05;;
72113;SDS011;59989;46.220;19.888;2024-03-17T08:07:48;2.78;;;0.50;;
72113;SDS011;59989;46.220;19.888;2024-03-17T08:10:49;6.67;;;0.80;;
72113;SDS011;59989;46.220;19.888;2024-03-17T08:13:52;10.53;;;1.47;;
72113;SDS011;59989;46.220;19.888;2024-03-17T08:16:55;4.47;;;0.73;;
72113;SDS011;59989;46.220;19.888;2024-03-17T08:19:57;4.30;;;1.40;;
72113;SDS011;59989;46.220;19.888;2024-03-17T08:22:58;8.00;;;1.00;;
72113;SDS011;59989;46.220;19.888;2024-03-17T08:26:00;4.93;;;0.70;;
72113;SDS011;59989;46.220;19.888;2024-03-17T08:29:02;3.50;;;0.80;;
72113;SDS011;59989;46.220;19.888;2024-03-17T08:32:03;6.38;;;0.88;;
72113;SDS011;59989;46.220;19.888;2024-03-17T08:35:05;5.65;;;0.70;;
72113;SDS011;59989;46.220;19.888;2024-03-17T08:38:07;3.88;;;0.90;;
72113;SDS011;59989;46.220;19.888;2024-03-17T08:41:09;14.77;;;1.00;;
72113;SDS011;59989;46.220;19.888;2024-03-17T08:44:11;2.77;;;0.50;;
72113;SDS011;59989;46.220;19.888;2024-03-17T08:47:13;7.20;;;0.90;;
72113;SDS011;59989;46.220;19.888;2024-03-17T08:50:15;4.70;;;1.00;;
72113;SDS011;59989;46.220;19.888;2024-03-17T08:53:16;14.68;;;1.48;;
72113;SDS011;59989;46.220;19.888;2024-03-17T08:56:18;14.10;;;1.10;;
72113;SDS011;59989;46.220;19.888;2024-03-17T08:59:22;6.20;;;1.27;;
72113;SDS011;59989;46.220;19.888;2024-03-17T09:02:23;12.32;;;1.35;;
72113;SDS011;59989;46.220;19.888;2024-03-17T09:05:25;6.00;;;0.98;;
72113;SDS011;59989;46.220;19.888;2024-03-17T09:08:27;9.07;;;1.23;;
72113;SDS011;59989;46.220;19.888;2024-03-17T09:11:29;6.00;;;0.67;;
72113;SDS011;59989;46.220;19.888;2024-03-17T09:14:30;4.93;;;0.60;;
72113;SDS011;59989;46.220;19.888;2024-03-17T09:17:33;14.02;;;1.88;;
72113;SDS011;59989;46.220;19.888;2024-03-17T09:20:34;17.35;;;1.38;;
72113;SDS011;59989;46.220;19.888;2024-03-17T09:23:36;14.75;;;0.88;;
72113;SDS011;59989;46.220;19.888;2024-03-17T09:26:40;12.70;;;1.17;;
72113;SDS011;59989;46.220;19.888;2024-03-17T09:29:42;4.50;;;0.60;;
72113;SDS011;59989;46.220;19.888;2024-03-17T09:32:43;9.70;;;1.23;;
72113;SDS011;59989;46.220;19.888;2024-03-17T09:35:52;13.55;;;1.67;;
72113;SDS011;59989;46.220;19.888;2024-03-17T09:39:01;7.82;;;0.88;;
72113;SDS011;59989;46.220;19.888;2024-03-17T09:42:05;4.97;;;0.70;;
72113;SDS011;59989;46.220;19.888;2024-03-17T09:45:10;12.40;;;2.20;;
72113;SDS011;59989;46.220;19.888;2024-03-17T09:48:15;10.48;;;1.13;;
72113;SDS011;59989;46.220;19.888;2024-03-17T09:51:19;4.28;;;1.00;;
72113;SDS011;59989;46.220;19.888;2024-03-17T09:54:22;3.17;;;0.60;;
72113;SDS011;59989;46.220;19.888;2024-03-17T09:57:24;10.20;;;1.00;;
72113;SDS011;59989;46.220;19.888;2024-03-17T10:00:26;7.33;;;0.90;;
72113;SDS011;59989;46.220;19.888;2024-03-17T10:06:50;15.82;;;2.38;;
72113;SDS011;59989;46.220;19.888;2024-03-17T10:09:52;7.22;;;0.70;;
72113;SDS011;59989;46.220;19.888;2024-03-17T10:13:13;6.70;;;0.67;;
72113;SDS011;59989;46.220;19.888;2024-03-17T10:16:22;34.67;;;2.43;;
72113;SDS011;59989;46.220;19.888;2024-03-17T10:19:25;6.15;;;0.80;;
72113;SDS011;59989;46.220;19.888;2024-03-17T10:22:28;4.65;;;0.80;;
72113;SDS011;59989;46.220;19.888;2024-03-17T10:25:33;6.55;;;1.05;;
72113;SDS011;59989;46.220;19.888;2024-03-17T10:28:39;3.43;;;0.70;;
72113;SDS011;59989;46.220;19.888;2024-03-17T10:31:45;21.57;;;2.00;;
72113;SDS011;59989;46.220;19.888;2024-03-17T10:34:47;7.15;;;0.70;;
72113;SDS011;59989;46.220;19.888;2024-03-17T10:38:22;23.38;;;2.08;;
72113;SDS011;59989;46.220;19.888;2024-03-17T10:41:16;14.07;;;1.35;;
72113;SDS011;59989;46.220;19.888;2024-03-17T10:44:17;8.90;;;0.90;;
72113;SDS011;59989;46.220;19.888;2024-03-17T10:47:22;10.73;;;0.70;;
72113;SDS011;59989;46.220;19.888;2024-03-17T10:50:29;35.17;;;1.90;;
72113;SDS011;59989;46.220;19.888;2024-03-17T10:53:32;4.47;;;0.90;;
72113;SDS011;59989;46.220;19.888;2024-03-17T10:56:34;4.03;;;0.70;;
72113;SDS011;59989;46.220;19.888;2024-03-17T10:59:40;3.93;;;0.57;;
72113;SDS011;59989;46.220;19.888;2024-03-17T11:02:42;25.60;;;2.73;;
72113;SDS011;59989;46.220;19.888;2024-03-17T11:05:46;19.38;;;1.60;;
72113;SDS011;59989;46.220;19.888;2024-03-17T11:08:49;6.50;;;0.90;;
72113;SDS011;59989;46.220;19.888;2024-03-17T11:11:51;7.57;;;1.70;;
72113;SDS011;59989;46.220;19.888;2024-03-17T11:15:16;4.27;;;0.50;;
72113;SDS011;59989;46.220;19.888;2024-03-17T11:21:24;7.00;;;0.82;;
72113;SDS011;59989;46.220;19.888;2024-03-17T11:24:26;5.95;;;0.73;;
72113;SDS011;59989;46.220;19.888;2024-03-17T11:27:40;8.93;;;1.27;;
72113;SDS011;59989;46.220;19.888;2024-03-17T11:33:59;3.97;;;0.57;;
72113;SDS011;59989;46.220;19.888;2024-03-17T11:37:04;3.45;;;0.60;;
72113;SDS011;59989;46.220;19.888;2024-03-17T11:40:24;11.13;;;1.05;;
72113;SDS011;59989;46.220;19.888;2024-03-17T11:43:26;5.47;;;0.50;;
72113;SDS011;59989;46.220;19.888;2024-03-17T11:46:28;7.90;;;0.70;;
72113;SDS011;59989;46.220;19.888;2024-03-17T11:49:31;5.70;;;0.60;;
72113;SDS011;59989;46.220;19.888;2024-03-17T11:52:40;9.00;;;0.90;;
72113;SDS011;59989;46.220;19.888;2024-03-17T11:55:48;2.40;;;0.47;;
72113;SDS011;59989;46.220;19.888;2024-03-17T11:59:03;6.40;;;0.90;;
72113;SDS011;59989;46.220;19.888;2024-03-17T12:05:18;7.33;;;0.67;;
72113;SDS011;59989;46.220;19.888;2024-03-17T12:08:22;5.10;;;0.60;;
72113;SDS011;59989;46.220;19.888;2024-03-17T12:11:24;3.75;;;0.55;;
72113;SDS011;59989;46.220;19.888;2024-03-17T12:14:26;8.07;;;0.85;;
72113;SDS011;59989;46.220;19.888;2024-03-17T12:17:28;8.23;;;1.20;;
72113;SDS011;59989;46.220;19.888;2024-03-17T12:20:30;7.03;;;0.90;;
72113;SDS011;59989;46.220;19.888;2024-03-17T12:23:31;4.78;;;1.25;;
72113;SDS011;59989;46.220;19.888;2024-03-17T12:26:33;3.95;;;0.75;;
72113;SDS011;59989;46.220;19.888;2024-03-17T12:29:36;6.90;;;0.88;;
72113;SDS011;59989;46.220;19.888;2024-03-17T12:32:41;6.30;;;0.70;;
72113;SDS011;59989;46.220;19.888;2024-03-17T12:35:43;5.33;;;0.80;;
72113;SDS011;59989;46.220;19.888;2024-03-17T12:38:46;5.75;;;1.10;;
72113;SDS011;59989;46.220;19.888;2024-03-17T12:45:12;5.75;;;0.90;;
72113;SDS011;59989;46.220;19.888;2024-03-17T12:48:14;5.00;;;0.70;;
72113;SDS011;59989;46.220;19.888;2024-03-17T12:51:15;3.33;;;0.70;;
72113;SDS011;59989;46.220;19.888;2024-03-17T12:54:21;7.05;;;1.13;;
72113;SDS011;59989;46.220;19.888;2024-03-17T12:57:25;4.00;;;0.80;;
72113;SDS011;59989;46.220;19.888;2024-03-17T13:00:56;4.10;;;0.80;;
72113;SDS011;59989;46.220;19.888;2024-03-17T13:04:05;3.73;;;0.90;;
72113;SDS011;59989;46.220;19.888;2024-03-17T13:07:09;3.97;;;0.90;;
72113;SDS011;59989;46.220;19.888;2024-03-17T13:10:17;2.88;;;0.68;;
72113;SDS011;59989;46.220;19.888;2024-03-17T13:13:20;3.78;;;0.70;;
72113;SDS011;59989;46.220;19.888;2024-03-17T13:16:21;7.68;;;1.00;;
72113;SDS011;59989;46.220;19.888;2024-03-17T13:19:23;6.67;;;1.10;;
72113;SDS011;59989;46.220;19.888;2024-03-17T13:22:25;3.97;;;1.00;;
72113;SDS011;59989;46.220;19.888;2024-03-17T13:25:30;3.45;;;0.90;;
72113;SDS011;59989;46.220;19.888;2024-03-17T13:28:38;5.72;;;0.90;;
72113;SDS011;59989;46.220;19.888;2024-03-17T13:31:40;6.28;;;0.85;;
72113;SDS011;59989;46.220;19.888;2024-03-17T13:34:41;6.27;;;0.93;;
72113;SDS011;59989;46.220;19.888;2024-03-17T13:37:47;5.10;;;0.93;;
72113;SDS011;59989;46.220;19.888;2024-03-17T13:40:51;5.15;;;0.82;;
72113;SDS011;59989;46.220;19.888;2024-03-17T13:43:52;3.65;;;0.70;;
72113;SDS011;59989;46.220;19.888;2024-03-17T13:46:58;9.95;;;1.42;;
72113;SDS011;59989;46.220;19.888;2024-03-17T13:50:02;4.43;;;1.33;;
72113;SDS011;59989;46.220;19.888;2024-03-17T13:53:07;3.10;;;0.80;;
72113;SDS011;59989;46.220;19.888;2024-03-17T13:56:10;3.53;;;0.70;;
72113;SDS011;59989;46.220;19.888;2024-03-17T13:59:11;3.80;;;0.90;;
72113;SDS011;59989;46.220;19.888;2024-03-17T14:02:13;8.60;;;1.00;;
72113;SDS011;59989;46.220;19.888;2024-03-17T14:05:15;3.17;;;0.63;;
72113;SDS011;59989;46.220;19.888;2024-03-17T14:08:18;6.97;;;1.13;;
72113;SDS011;59989;46.220;19.888;2024-03-17T14:11:20;4.80;;;0.95;;
72113;SDS011;59989;46.220;19.888;2024-03-17T14:14:22;3.75;;;0.77;;
72113;SDS011;59989;46.220;19.888;2024-03-17T14:17:24;5.18;;;0.70;;
72113;SDS011;59989;46.220;19.888;2024-03-17T14:20:26;2.70;;;0.60;;
72113;SDS011;59989;46.220;19.888;2024-03-17T14:23:27;3.23;;;0.77;;
72113;SDS011;59989;46.220;19.888;2024-03-17T14:26:31;7.07;;;1.02;;
72113;SDS011;59989;46.220;19.888;2024-03-17T14:29:32;4.47;;;0.90;;
72113;SDS011;59989;46.220;19.888;2024-03-17T14:32:34;4.40;;;0.60;;
72113;SDS011;59989;46.220;19.888;2024-03-17T14:35:35;5.23;;;0.80;;
72113;SDS011;59989;46.220;19.888;2024-03-17T14:38:39;4.10;;;0.70;;
72113;SDS011;59989;46.220;19.888;2024-03-17T14:41:40;3.55;;;0.73;;
72113;SDS011;59989;46.220;19.888;2024-03-17T14:44:42;2.22;;;0.43;;
72113;SDS011;59989;46.220;19.888;2024-03-17T14:47:44;3.50;;;1.00;;
72113;SDS011;59989;46.220;19.888;2024-03-17T14:50:46;3.33;;;0.40;;
72113;SDS011;59989;46.220;19.888;2024-03-17T14:53:48;3.00;;;0.60;;
72113;SDS011;59989;46.220;19.888;2024-03-17T14:56:52;4.38;;;1.25;;
72113;SDS011;59989;46.220;19.888;2024-03-17T14:59:56;3.63;;;0.50;;
72113;SDS011;59989;46.220;19.888;2024-03-17T15:02:58;4.70;;;1.08;;
72113;SDS011;59989;46.220;19.888;2024-03-17T15:06:00;3.17;;;0.77;;
72113;SDS011;59989;46.220;19.888;2024-03-17T15:09:02;3.27;;;0.60;;
72113;SDS011;59989;46.220;19.888;2024-03-17T15:12:04;5.15;;;0.90;;
72113;SDS011;59989;46.220;19.888;2024-03-17T15:15:08;2.25;;;0.50;;
72113;SDS011;59989;46.220;19.888;2024-03-17T15:18:11;2.95;;;0.68;;
72113;SDS011;59989;46.220;19.888;2024-03-17T15:21:13;2.43;;;0.40;;
72113;SDS011;59989;46.220;19.888;2024-03-17T15:24:15;4.60;;;0.60;;
72113;SDS011;59989;46.220;19.888;2024-03-17T15:27:16;3.92;;;0.60;;
72113;SDS011;59989;46.220;19.888;2024-03-17T15:30:18;2.70;;;0.40;;
72113;SDS011;59989;46.220;19.888;2024-03-17T15:33:19;3.65;;;0.50;;
72113;SDS011;59989;46.220;19.888;2024-03-17T15:36:21;3.57;;;0.60;;
72113;SDS011;59989;46.220;19.888;2024-03-17T15:39:23;4.37;;;0.60;;
72113;SDS011;59989;46.220;19.888;2024-03-17T15:42:25;3.20;;;0.70;;
72113;SDS011;59989;46.220;19.888;2024-03-17T15:45:27;5.82;;;1.13;;
72113;SDS011;59989;46.220;19.888;2024-03-17T15:48:29;4.22;;;0.70;;
72113;SDS011;59989;46.220;19.888;2024-03-17T15:51:31;2.07;;;0.40;;
72113;SDS011;59989;46.220;19.888;2024-03-17T15:54:33;4.03;;;0.80;;
72113;SDS011;59989;46.220;19.888;2024-03-17T15:57:36;4.13;;;0.80;;
72113;SDS011;59989;46.220;19.888;2024-03-17T16:00:38;5.40;;;0.70;;
72113;SDS011;59989;46.220;19.888;2024-03-17T16:03:40;4.20;;;0.65;;
72113;SDS011;59989;46.220;19.888;2024-03-17T16:06:42;3.37;;;0.50;;
72113;SDS011;59989;46.220;19.888;2024-03-17T16:09:43;4.20;;;0.47;;
72113;SDS011;59989;46.220;19.888;2024-03-17T16:12:45;5.80;;;0.50;;
72113;SDS011;59989;46.220;19.888;2024-03-17T16:15:47;4.05;;;0.75;;
72113;SDS011;59989;46.220;19.888;2024-03-17T16:18:48;6.50;;;1.00;;
72113;SDS011;59989;46.220;19.888;2024-03-17T16:21:50;7.00;;;1.47;;
72113;SDS011;59989;46.220;19.888;2024-03-17T16:24:52;6.87;;;1.00;;
72113;SDS011;59989;46.220;19.888;2024-03-17T16:27:54;5.05;;;1.20;;
72113;SDS011;59989;46.220;19.888;2024-03-17T16:30:56;3.03;;;0.70;;
72113;SDS011;59989;46.220;19.888;2024-03-17T16:33:58;7.78;;;1.08;;
72113;SDS011;59989;46.220;19.888;2024-03-17T16:37:02;5.17;;;0.83;;
72113;SDS011;59989;46.220;19.888;2024-03-17T16:40:04;9.00;;;2.13;;
72113;SDS011;59989;46.220;19.888;2024-03-17T16:43:09;6.88;;;1.60;;
72113;SDS011;59989;46.220;19.888;2024-03-17T16:46:20;4.95;;;0.82;;
72113;SDS011;59989;46.220;19.888;2024-03-17T16:49:24;6.07;;;1.33;;
72113;SDS011;59989;46.220;19.888;2024-03-17T16:52:27;10.37;;;2.57;;
72113;SDS011;59989;46.220;19.888;2024-03-17T16:55:30;6.83;;;2.13;;
72113;SDS011;59989;46.220;19.888;2024-03-17T16:58:32;7.20;;;1.73;;
72113;SDS011;59989;46.220;19.888;2024-03-17T17:01:34;7.30;;;1.42;;
72113;SDS011;59989;46.220;19.888;2024-03-17T17:04:39;7.10;;;1.77;;
72113;SDS011;59989;46.220;19.888;2024-03-17T17:07:41;7.03;;;1.53;;
72113;SDS011;59989;46.220;19.888;2024-03-17T17:10:43;5.67;;;1.40;;
72113;SDS011;59989;46.220;19.888;2024-03-17T17:13:45;5.78;;;1.30;;
72113;SDS011;59989;46.220;19.888;2024-03-17T17:16:47;17.90;;;5.75;;
72113;SDS011;59989;46.220;19.888;2024-03-17T17:19:48;27.10;;;7.80;;
72113;SDS011;59989;46.220;19.888;2024-03-17T17:22:53;26.20;;;8.47;;
72113;SDS011;59989;46.220;19.888;2024-03-17T17:25:54;30.13;;;10.97;;
72113;SDS011;59989;46.220;19.888;2024-03-17T17:28:57;23.33;;;6.47;;
72113;SDS011;59989;46.220;19.888;2024-03-17T17:32:06;15.93;;;4.55;;
72113;SDS011;59989;46.220;19.888;2024-03-17T17:35:08;17.73;;;6.20;;
72113;SDS011;59989;46.220;19.888;2024-03-17T17:38:10;18.77;;;8.13;;
72113;SDS011;59989;46.220;19.888;2024-03-17T17:41:12;16.00;;;6.10;;
72113;SDS011;59989;46.220;19.888;2024-03-17T17:44:16;9.82;;;3.33;;
72113;SDS011;59989;46.220;19.888;2024-03-17T17:47:17;8.88;;;2.15;;
72113;SDS011;59989;46.220;19.888;2024-03-17T17:50:19;8.32;;;1.70;;
72113;SDS011;59989;46.220;19.888;2024-03-17T17:53:21;7.37;;;1.70;;
72113;SDS011;59989;46.220;19.888;2024-03-17T17:56:22;9.83;;;2.20;;
72113;SDS011;59989;46.220;19.888;2024-03-17T17:59:25;10.13;;;3.15;;
72113;SDS011;59989;46.220;19.888;2024-03-17T18:02:27;8.93;;;2.28;;
72113;SDS011;59989;46.220;19.888;2024-03-17T18:05:31;10.07;;;2.80;;
72113;SDS011;59989;46.220;19.888;2024-03-17T18:08:33;19.53;;;9.57;;
72113;SDS011;59989;46.220;19.888;2024-03-17T18:11:34;30.57;;;15.83;;
72113;SDS011;59989;46.220;19.888;2024-03-17T18:14:37;31.15;;;15.93;;
72113;SDS011;59989;46.220;19.888;2024-03-17T18:17:38;19.00;;;8.10;;